createdAt,value
2019-01-02T00:02:32.157Z,102187.67
2019-01-02T00:05:20.238Z,102182.67
2019-01-02T00:08:08.318Z,102193.61
2019-01-02T00:10:58.140Z,102201.12
2019-01-02T00:13:47.906Z,102212.00
2019-01-02T00:16:35.973Z,102213.67
2019-01-02T00:19:24.077Z,102224.19
2019-01-02T00:25:20.997Z,102221.59
2019-01-02T00:28:10.762Z,102218.63
2019-01-02T00:30:58.851Z,102222.86
2019-01-02T00:36:54.057Z,102235.40
2019-01-02T00:39:44.318Z,102230.41
2019-01-02T00:42:32.354Z,102247.68
2019-01-02T00:51:08.105Z,102281.44
2019-01-02T00:53:56.148Z,102272.18
2019-01-02T00:59:37.558Z,102283.11
2019-01-02T01:02:25.639Z,102279.76
2019-01-02T01:05:13.717Z,102290.59
2019-01-02T01:08:03.414Z,102293.15
2019-01-02T01:10:51.493Z,102301.95
2019-01-02T01:13:39.859Z,102302.37
2019-01-02T01:16:27.929Z,102305.34
2019-01-02T01:19:17.655Z,102317.59
2019-01-02T01:22:05.746Z,102314.55
2019-01-02T01:24:53.781Z,102325.06
2019-01-02T01:27:41.861Z,102356.74
2019-01-02T01:30:31.618Z,102365.14
2019-01-02T01:33:21.703Z,102363.50
2019-01-02T01:36:09.813Z,102355.48
2019-01-02T01:38:58.468Z,102369.85
2019-01-02T01:41:46.562Z,102367.77
2019-01-02T01:47:41.776Z,102388.05
2019-01-02T01:50:31.534Z,102396.00
2019-01-02T01:53:19.685Z,102400.64
2019-01-02T01:56:07.947Z,102411.12
2019-01-02T01:58:56.035Z,102415.36
2019-01-02T02:01:44.121Z,102409.01
2019-01-02T02:07:39.313Z,102410.55
2019-01-02T02:10:12.407Z,102425.84
2019-01-02T02:13:00.664Z,102431.27
2019-01-02T02:15:48.698Z,102432.02
2019-01-02T02:18:36.637Z,102450.59
2019-01-02T02:24:31.879Z,102440.48
2019-01-02T02:27:21.657Z,102457.42
2019-01-02T02:29:50.712Z,102452.81
2019-01-02T02:32:38.754Z,102452.36
2019-01-02T02:35:28.856Z,102467.97
2019-01-02T02:38:18.974Z,102451.95
2019-01-02T02:41:08.833Z,102459.94
2019-01-02T02:43:58.532Z,102463.36
2019-01-02T02:46:48.366Z,102473.47
2019-01-02T02:52:43.468Z,102480.67
2019-01-02T02:55:14.953Z,102468.92
2019-01-02T02:58:03.049Z,102470.98
2019-01-02T03:00:51.090Z,102484.09
2019-01-02T03:03:40.769Z,102484.61
2019-01-02T03:06:29.018Z,102484.53
2019-01-02T03:09:19.032Z,102494.56
2019-01-02T03:15:01.074Z,102485.35
2019-01-02T03:17:49.168Z,102500.06
2019-01-02T03:20:37.180Z,102511.44
2019-01-02T03:23:25.266Z,102513.52
2019-01-02T03:26:13.321Z,102507.13
2019-01-02T03:29:01.397Z,102529.23
2019-01-02T03:34:58.307Z,102524.55
2019-01-02T03:37:46.346Z,102532.45
2019-01-02T03:40:34.422Z,102536.53
2019-01-02T03:43:22.317Z,102531.89
2019-01-02T03:46:10.410Z,102545.75
2019-01-02T03:48:58.644Z,102548.85
2019-01-02T03:51:46.717Z,102553.91
2019-01-02T03:54:34.728Z,102569.95
2019-01-02T03:57:22.794Z,102585.10
2019-01-02T04:03:17.988Z,102578.26
2019-01-02T04:06:06.037Z,102591.38
2019-01-02T04:08:54.110Z,102595.16
2019-01-02T04:11:42.185Z,102579.56
2019-01-02T04:14:30.596Z,102613.57
2019-01-02T04:17:18.673Z,102614.34
2019-01-02T04:20:06.731Z,102627.38
2019-01-02T04:22:54.810Z,102621.75
2019-01-02T04:25:23.840Z,102633.06
2019-01-02T04:28:15.183Z,102631.03
2019-01-02T04:34:10.362Z,102663.64
2019-01-02T04:36:58.510Z,102688.80
2019-01-02T04:39:46.368Z,102681.22
2019-01-02T04:42:34.314Z,102671.48
2019-01-02T04:45:22.406Z,102683.70
2019-01-02T04:48:10.431Z,102692.13
2019-01-02T04:51:17.581Z,102702.77
2019-01-02T04:57:12.740Z,102717.91
2019-01-02T05:00:00.815Z,102725.84
2019-01-02T05:05:55.918Z,102721.97
2019-01-02T05:08:43.946Z,102734.14
2019-01-02T05:11:32.018Z,102738.83
2019-01-02T05:17:27.190Z,102742.26
2019-01-02T05:20:15.571Z,102743.52
2019-01-02T05:23:03.880Z,102749.88
2019-01-02T05:25:51.908Z,102757.86
2019-01-02T05:31:33.530Z,102769.63
2019-01-02T05:34:21.925Z,102769.98
2019-01-02T05:37:09.988Z,102783.72
2019-01-02T05:39:58.056Z,102781.10
2019-01-02T05:42:46.122Z,102767.48
2019-01-02T05:45:34.084Z,102775.36
2019-01-02T05:48:22.154Z,102793.03
2019-01-02T05:51:10.181Z,102806.05
2019-01-02T05:53:58.256Z,102804.59
2019-01-02T05:59:53.472Z,102813.42
2019-01-02T06:02:41.558Z,102829.73
2019-01-02T06:05:29.624Z,102830.44
2019-01-02T06:08:18.076Z,102866.42
2019-01-02T06:11:06.155Z,102837.66
2019-01-02T06:13:54.179Z,102856.58
2019-01-02T06:16:42.882Z,102851.33
2019-01-02T06:19:30.956Z,102859.76
2019-01-02T06:22:18.847Z,102866.47
2019-01-02T06:25:06.951Z,102878.98
2019-01-02T06:27:55.023Z,102879.73
2019-01-02T06:30:43.098Z,102900.42
2019-01-02T06:33:30.982Z,102897.45
2019-01-02T06:36:19.065Z,102904.21
2019-01-02T06:39:07.138Z,102913.50
2019-01-02T06:41:55.038Z,102928.02
2019-01-02T06:44:43.072Z,102930.81
2019-01-02T06:47:31.144Z,102958.10
2019-01-02T06:50:39.596Z,102948.06
2019-01-02T06:53:27.646Z,102956.73
2019-01-02T06:56:15.682Z,102952.20
2019-01-02T06:59:04.077Z,102962.23
2019-01-02T07:01:52.174Z,102962.23
2019-01-02T07:10:41.458Z,102991.42
2019-01-02T07:13:29.492Z,102989.54
2019-01-02T07:16:17.555Z,102982.31
2019-01-02T07:19:05.584Z,102996.19
2019-01-02T07:24:47.280Z,103007.25
2019-01-02T07:27:35.360Z,103018.14
2019-01-02T07:30:05.524Z,103019.30
2019-01-02T07:32:53.598Z,103021.30
2019-01-02T07:36:00.869Z,103020.95
2019-01-02T07:39:10.977Z,103032.23
2019-01-02T07:42:18.183Z,103042.95
2019-01-02T07:45:25.310Z,103060.61
2019-01-02T07:48:32.492Z,103061.47
2019-01-02T07:51:39.634Z,103062.55
2019-01-02T07:54:46.867Z,103077.80
2019-01-02T07:57:53.993Z,103079.52
2019-01-02T08:01:01.174Z,103080.77
2019-01-02T08:04:08.379Z,103085.64
2019-01-02T08:07:15.558Z,103093.54
2019-01-02T08:10:22.691Z,103094.86
2019-01-02T08:13:34.902Z,103113.65
2019-01-02T08:16:42.047Z,103095.33
2019-01-02T08:22:49.573Z,103101.84
2019-01-02T08:25:56.757Z,103118.56
2019-01-02T08:29:03.917Z,103102.52
2019-01-02T08:32:11.105Z,103117.06
2019-01-02T08:35:18.246Z,103132.65
2019-01-02T08:38:25.458Z,103149.55
2019-01-02T08:41:32.655Z,103147.16
2019-01-02T08:44:39.822Z,103145.03
2019-01-02T08:47:47.003Z,103178.73
2019-01-02T08:50:58.472Z,103180.31
2019-01-02T08:54:05.640Z,103184.27
2019-01-02T08:57:12.815Z,103204.05
2019-01-02T09:00:20.003Z,103206.30
2019-01-02T09:03:27.137Z,103211.06
2019-01-02T09:06:34.316Z,103212.91
2019-01-02T09:09:41.553Z,103211.65
2019-01-02T09:16:11.190Z,103230.53
2019-01-02T09:19:26.525Z,103237.83
2019-01-02T09:22:43.681Z,103242.01
2019-01-02T09:25:50.949Z,103249.02
2019-01-02T09:29:03.346Z,103246.56
2019-01-02T09:32:10.534Z,103258.07
2019-01-02T09:35:17.711Z,103276.66
2019-01-02T09:38:12.365Z,103268.88
2019-01-02T09:41:19.563Z,103270.31
2019-01-02T09:44:26.762Z,103287.18
2019-01-02T09:47:33.895Z,103289.36
2019-01-02T09:50:41.079Z,103285.48
2019-01-02T09:53:55.114Z,103290.77
2019-01-02T09:56:50.568Z,103297.42
2019-01-02T09:59:45.285Z,103305.64
2019-01-02T10:03:03.511Z,103309.83
2019-01-02T10:06:10.671Z,103307.88
2019-01-02T10:09:17.864Z,103299.69
2019-01-02T10:12:13.266Z,103322.53
2019-01-02T10:15:20.411Z,103319.50
2019-01-02T10:18:27.590Z,103325.25
2019-01-02T10:21:34.759Z,103312.17
2019-01-02T10:24:41.959Z,103327.94
2019-01-02T10:27:49.137Z,103337.36
2019-01-02T10:30:42.245Z,103341.73
2019-01-02T10:33:35.461Z,103332.66
2019-01-02T10:36:42.643Z,103342.08
2019-01-02T10:39:49.777Z,103355.74
2019-01-02T10:42:56.985Z,103372.86
2019-01-02T10:46:04.123Z,103356.66
2019-01-02T10:49:01.187Z,103367.92
2019-01-02T10:52:08.327Z,103353.32
2019-01-02T10:55:03.013Z,103370.45
2019-01-02T10:58:10.241Z,103374.81
2019-01-02T11:01:17.454Z,103375.38
2019-01-02T11:04:24.586Z,103398.89
2019-01-02T11:07:31.854Z,103403.14
2019-01-02T11:10:39.056Z,103394.69
2019-01-02T11:13:46.249Z,103391.23
2019-01-02T11:16:53.489Z,103403.36
2019-01-02T11:20:00.767Z,103401.30
2019-01-02T11:22:56.494Z,103398.81
2019-01-02T11:26:14.359Z,103395.88
2019-01-02T11:29:26.107Z,103422.38
2019-01-02T11:32:33.424Z,103414.19
2019-01-02T11:38:47.739Z,103415.20
2019-01-02T11:42:09.125Z,103416.26
2019-01-02T11:45:16.257Z,103432.50
2019-01-02T11:48:04.379Z,103441.34
2019-01-02T11:50:33.419Z,103426.78
2019-01-02T11:53:21.525Z,103447.13
2019-01-02T11:56:09.594Z,103447.93
2019-01-02T11:58:57.666Z,103425.05
2019-01-02T12:01:45.812Z,103438.97
2019-01-02T12:07:27.327Z,103437.55
2019-01-02T12:09:56.389Z,103435.28
2019-01-02T12:12:44.423Z,103437.35
2019-01-02T12:15:13.535Z,103436.55
2019-01-02T12:18:01.644Z,103458.48
2019-01-02T12:20:49.759Z,103454.22
2019-01-02T12:23:37.795Z,103469.28
2019-01-02T12:26:25.731Z,103463.08
2019-01-02T12:29:13.774Z,103453.08
2019-01-02T12:34:55.747Z,103442.27
2019-01-02T12:37:43.837Z,103465.26
2019-01-02T12:40:31.972Z,103484.45
2019-01-02T12:46:27.478Z,103464.68
2019-01-02T12:52:22.710Z,103458.59
2019-01-02T12:55:10.674Z,103464.80
2019-01-02T12:57:58.746Z,103466.17
2019-01-02T13:01:07.860Z,103459.31
2019-01-02T13:04:15.038Z,103469.31
2019-01-02T13:07:22.203Z,103441.00
2019-01-02T13:10:29.399Z,103464.34
2019-01-02T13:13:36.539Z,103457.44
2019-01-02T13:16:36.785Z,103463.30
2019-01-02T13:19:43.915Z,103445.26
2019-01-02T13:22:51.092Z,103462.38
2019-01-02T13:26:01.182Z,103471.23
2019-01-02T13:29:08.368Z,103479.91
2019-01-02T13:32:15.498Z,103485.02
2019-01-02T13:35:22.677Z,103478.58
2019-01-02T13:38:29.815Z,103484.16
2019-01-02T13:41:36.997Z,103484.50
2019-01-02T13:47:55.950Z,103497.61
2019-01-02T13:51:03.752Z,103493.17
2019-01-02T13:53:52.205Z,103501.10
2019-01-02T13:56:41.515Z,103487.94
2019-01-02T13:59:29.579Z,103513.03
2019-01-02T14:02:38.043Z,103523.03
2019-01-02T14:05:28.967Z,103513.03
2019-01-02T14:16:37.185Z,103501.58
2019-01-02T14:19:25.323Z,103515.35
2019-01-02T14:22:14.460Z,103510.23
2019-01-02T14:27:55.728Z,103515.38
2019-01-02T14:33:18.646Z,103505.36
2019-01-02T14:36:06.608Z,103509.03
2019-01-02T14:38:54.711Z,103508.50
2019-01-02T14:41:42.784Z,103508.28
2019-01-02T14:44:30.939Z,103517.73
2019-01-02T14:46:59.971Z,103519.73
2019-01-02T14:49:48.047Z,103515.81
2019-01-02T14:52:36.092Z,103516.14
2019-01-02T14:55:24.134Z,103515.55
2019-01-02T14:58:12.174Z,103522.01
2019-01-02T15:01:00.508Z,103516.89
2019-01-02T15:03:48.554Z,103515.37
2019-01-02T15:06:36.679Z,103531.52
2019-01-02T15:09:08.122Z,103531.45
2019-01-02T15:11:56.212Z,103541.02
2019-01-02T15:14:44.281Z,103533.64
2019-01-02T15:17:32.376Z,103546.86
2019-01-02T15:20:40.895Z,103538.95
2019-01-02T15:23:28.798Z,103540.07
2019-01-02T15:26:16.876Z,103555.47
2019-01-02T15:29:04.767Z,103542.33
2019-01-02T15:31:52.690Z,103549.72
2019-01-02T15:34:40.720Z,103542.34
2019-01-02T15:37:28.664Z,103542.86
2019-01-02T15:40:16.555Z,103541.79
2019-01-02T15:43:04.535Z,103535.20
2019-01-02T15:45:52.489Z,103541.91
2019-01-02T15:48:40.536Z,103536.73
2019-01-02T15:51:28.606Z,103540.30
2019-01-02T15:54:16.500Z,103533.31
2019-01-02T15:57:04.588Z,103537.61
2019-01-02T15:59:53.095Z,103553.13
2019-01-02T16:02:41.120Z,103544.48
2019-01-02T16:05:29.148Z,103541.28
2019-01-02T16:08:17.052Z,103540.27
2019-01-02T16:11:05.230Z,103542.25
2019-01-02T16:13:53.125Z,103548.48
2019-01-02T16:16:42.386Z,103550.06
2019-01-02T16:19:30.851Z,103556.30
2019-01-02T16:22:18.936Z,103555.28
2019-01-02T16:24:47.877Z,103553.95
2019-01-02T16:27:35.952Z,103559.20
2019-01-02T16:30:44.419Z,103562.12
2019-01-02T16:33:32.484Z,103563.30
2019-01-02T16:36:20.546Z,103560.94
2019-01-02T16:39:09.000Z,103558.98
2019-01-02T16:41:56.967Z,103560.56
2019-01-02T16:44:45.050Z,103553.57
2019-01-02T16:47:33.091Z,103565.23
2019-01-02T16:50:21.181Z,103564.78
2019-01-02T16:53:09.219Z,103556.92
2019-01-02T16:55:57.303Z,103569.67
2019-01-02T16:58:45.336Z,103566.45
2019-01-02T17:01:33.397Z,103570.62
2019-01-02T17:07:28.886Z,103579.61
2019-01-02T17:10:16.969Z,103569.70
2019-01-02T17:13:05.072Z,103582.61
2019-01-02T17:15:53.185Z,103583.00
2019-01-02T17:18:55.201Z,103578.83
2019-01-02T17:21:31.019Z,103583.63
2019-01-02T17:24:19.159Z,103580.09
2019-01-02T17:27:07.335Z,103580.41
2019-01-02T17:30:15.959Z,103577.42
2019-01-02T17:33:04.021Z,103579.47
2019-01-02T17:35:52.367Z,103573.96
2019-01-02T17:38:40.390Z,103579.94
2019-01-02T17:41:28.539Z,103581.36
2019-01-02T17:44:16.620Z,103580.42
2019-01-02T17:47:04.714Z,103578.69
2019-01-02T17:49:52.790Z,103574.91
2019-01-02T17:52:40.821Z,103580.26
2019-01-02T17:55:29.005Z,103576.41
2019-01-02T17:58:17.165Z,103575.22
2019-01-02T18:01:05.282Z,103575.38
2019-01-02T18:07:00.489Z,103577.58
2019-01-02T18:09:29.469Z,103571.50
2019-01-02T18:12:17.581Z,103573.94
2019-01-02T18:15:05.645Z,103571.73
2019-01-02T18:17:53.761Z,103571.57
2019-01-02T18:20:41.853Z,103562.61
2019-01-02T18:23:10.995Z,103566.38
2019-01-02T18:25:59.113Z,103561.66
2019-01-02T18:28:47.271Z,103568.34
2019-01-02T18:34:42.426Z,103565.75
2019-01-02T18:37:30.507Z,103547.82
2019-01-02T18:43:12.245Z,103559.84
2019-01-02T18:46:00.316Z,103555.67
2019-01-02T18:48:48.377Z,103564.23
2019-01-02T18:51:36.440Z,103565.47
2019-01-02T18:54:24.575Z,103568.77
2019-01-02T18:57:12.706Z,103565.84
2019-01-02T19:00:06.011Z,103568.67
2019-01-02T19:02:50.617Z,103554.12
2019-01-02T19:05:38.807Z,103561.58
2019-01-02T19:11:34.038Z,103569.60
2019-01-02T19:17:29.218Z,103571.33
2019-01-02T19:20:17.321Z,103564.57
2019-01-02T19:23:05.353Z,103568.03
2019-01-02T19:25:53.442Z,103568.66
2019-01-02T19:28:41.521Z,103582.87
2019-01-02T19:31:29.605Z,103587.81
2019-01-02T19:34:17.668Z,103590.89
2019-01-02T19:37:05.753Z,103599.77
2019-01-02T19:39:53.813Z,103609.05
2019-01-02T19:42:41.894Z,103595.22
2019-01-02T19:45:29.862Z,103597.73
2019-01-02T19:48:17.968Z,103599.94
2019-01-02T19:51:06.018Z,103621.48
2019-01-02T19:53:54.119Z,103616.14
2019-01-02T19:56:42.211Z,103615.50
2019-01-02T19:59:30.258Z,103612.52
2019-01-02T20:02:18.360Z,103623.21
2019-01-02T20:05:06.409Z,103621.95
2019-01-02T20:07:54.504Z,103605.61
2019-01-02T20:13:54.178Z,103611.73
2019-01-02T20:16:42.180Z,103612.26
2019-01-02T20:19:30.266Z,103612.17
2019-01-02T20:22:18.678Z,103599.52
2019-01-02T20:25:06.753Z,103605.61
2019-01-02T20:27:54.717Z,103598.68
2019-01-02T20:30:42.730Z,103605.05
2019-01-02T20:33:11.714Z,103594.05
2019-01-02T20:35:59.804Z,103601.20
2019-01-02T20:41:55.347Z,103603.17
2019-01-02T20:44:43.497Z,103594.49
2019-01-02T20:47:31.589Z,103585.94
2019-01-02T20:50:19.661Z,103591.92
2019-01-02T20:53:07.734Z,103598.20
2019-01-02T20:55:55.814Z,103592.00
2019-01-02T20:58:43.850Z,103587.53
2019-01-02T21:01:31.923Z,103598.69
2019-01-02T21:10:07.288Z,103598.52
2019-01-02T21:12:55.367Z,103585.55
2019-01-02T21:15:43.412Z,103582.00
2019-01-02T21:18:38.773Z,103575.44
2019-01-02T21:24:33.983Z,103568.13
2019-01-02T21:27:22.068Z,103564.80
2019-01-02T21:30:10.006Z,103556.00
2019-01-02T21:32:58.374Z,103547.34
2019-01-02T21:38:39.895Z,103548.58
2019-01-02T21:41:27.985Z,103532.71
2019-01-02T21:44:16.025Z,103533.97
2019-01-02T21:47:04.120Z,103536.48
2019-01-02T21:49:52.193Z,103547.14
2019-01-02T21:52:40.278Z,103534.89
2019-01-02T21:55:28.319Z,103537.48
2019-01-02T21:58:16.330Z,103528.47
2019-01-02T22:03:58.193Z,103539.47
2019-01-02T22:06:46.304Z,103537.09
2019-01-02T22:09:34.351Z,103535.59
2019-01-02T22:12:22.434Z,103528.91
2019-01-02T22:15:10.478Z,103527.48
2019-01-02T22:17:58.573Z,103528.27
2019-01-02T22:20:46.621Z,103533.77
2019-01-02T22:23:34.598Z,103536.76
2019-01-02T22:26:22.617Z,103542.27
2019-01-02T22:29:10.719Z,103544.52
2019-01-02T22:31:58.705Z,103543.56
2019-01-02T22:34:46.724Z,103551.02
2019-01-02T22:37:34.794Z,103545.61
2019-01-02T22:40:22.904Z,103552.11
2019-01-02T22:42:51.849Z,103556.96
2019-01-02T22:45:39.966Z,103562.98
2019-01-02T22:48:28.012Z,103566.54
2019-01-02T22:51:16.102Z,103561.61
2019-01-02T22:54:03.998Z,103563.50
2019-01-02T22:56:51.960Z,103561.86
2019-01-02T22:59:40.016Z,103559.09
2019-01-02T23:02:14.966Z,103555.75
2019-01-02T23:05:22.022Z,103557.78
2019-01-02T23:08:24.579Z,103548.53
2019-01-02T23:11:31.986Z,103554.81
2019-01-02T23:14:39.030Z,103556.35
2019-01-02T23:17:46.094Z,103557.03
2019-01-02T23:20:53.091Z,103565.95
2019-01-02T23:24:00.149Z,103567.78
2019-01-02T23:27:07.155Z,103564.12
2019-01-02T23:30:14.194Z,103561.81
2019-01-02T23:33:02.108Z,103553.04
2019-01-02T23:35:50.138Z,103556.22
2019-01-02T23:38:38.126Z,103554.28
2019-01-02T23:41:45.198Z,103546.19
2019-01-02T23:44:29.343Z,103544.36
2019-01-02T23:47:17.290Z,103560.92
2019-01-02T23:50:24.338Z,103566.59
2019-01-02T23:53:31.382Z,103563.61
2019-01-02T23:56:19.374Z,103559.47
2019-01-02T23:59:26.423Z,103560.44
